createdAt,value
2022-11-29T00:04:45.043Z,95445.69
2022-11-29T00:09:46.684Z,95441.78
2022-11-29T00:14:48.143Z,95441.44
2022-11-29T00:19:49.598Z,95439.06
2022-11-29T00:24:51.912Z,95437.97
2022-11-29T00:29:53.344Z,95429.28
2022-11-29T00:34:58.253Z,95426.41
2022-11-29T00:40:00.885Z,95426.03
2022-11-29T00:45:02.382Z,95433.75
2022-11-29T00:50:04.676Z,95436.63
2022-11-29T00:55:06.499Z,95427.09
2022-11-29T01:00:08.512Z,95428.19
2022-11-29T01:05:09.977Z,95427.59
2022-11-29T01:10:11.439Z,95421.59
2022-11-29T01:15:13.010Z,95427.34
2022-11-29T01:20:15.480Z,95427.44
2022-11-29T01:25:17.299Z,95430.22
2022-11-29T01:30:19.219Z,95434.97
2022-11-29T01:35:20.662Z,95432.09
2022-11-29T01:40:22.154Z,95440.56
2022-11-29T01:45:26.403Z,95431.72
2022-11-29T01:50:27.880Z,95429.00
2022-11-29T01:55:29.390Z,95426.63
2022-11-29T02:00:30.885Z,95428.75
2022-11-29T02:05:33.126Z,95421.59
2022-11-29T02:10:46.583Z,95422.44
2022-11-29T02:16:03.179Z,95431.03
2022-11-29T02:21:07.378Z,95423.03
2022-11-29T02:26:42.471Z,95425.06
2022-11-29T02:32:00.827Z,95417.00
2022-11-29T02:37:47.807Z,95421.91
2022-11-29T02:43:18.229Z,95420.75
2022-11-29T02:48:19.522Z,95416.56
2022-11-29T02:53:27.835Z,95418.47
2022-11-29T02:58:47.348Z,95419.44
2022-11-29T03:04:27.117Z,95417.19
2022-11-29T03:09:45.640Z,95419.31
2022-11-29T03:14:57.195Z,95427.78
2022-11-29T03:20:06.208Z,95425.75
2022-11-29T03:25:22.174Z,95428.47
2022-11-29T03:30:23.780Z,95430.28
2022-11-29T03:35:46.279Z,95436.69
2022-11-29T03:40:50.639Z,95434.22
2022-11-29T03:46:02.099Z,95428.13
2022-11-29T03:51:11.339Z,95435.28
2022-11-29T03:56:27.285Z,95443.16
2022-11-29T04:01:54.001Z,95440.19
2022-11-29T04:07:26.973Z,95433.63
2022-11-29T04:12:38.479Z,95436.63
2022-11-29T04:17:58.301Z,95435.91
2022-11-29T04:23:17.947Z,95435.31
2022-11-29T04:28:43.503Z,95436.75
2022-11-29T04:34:03.579Z,95439.13
2022-11-29T04:39:04.880Z,95444.97
2022-11-29T04:44:27.317Z,95444.72
2022-11-29T04:49:44.802Z,95439.84
2022-11-29T04:54:59.889Z,95452.94
2022-11-29T05:00:15.254Z,95455.81
2022-11-29T05:05:31.976Z,95455.69
2022-11-29T05:10:59.610Z,95457.47
2022-11-29T05:16:37.133Z,95462.47
2022-11-29T05:22:15.956Z,95477.50
2022-11-29T05:27:36.654Z,95484.75
2022-11-29T05:32:55.712Z,95478.69
2022-11-29T05:38:02.474Z,95484.41
2022-11-29T05:43:19.479Z,95484.75
2022-11-29T05:48:29.597Z,95488.94
2022-11-29T05:53:42.932Z,95487.97
2022-11-29T05:59:05.409Z,95497.63
2022-11-29T06:04:22.039Z,95502.13
2022-11-29T06:09:32.230Z,95499.41
2022-11-29T06:14:52.462Z,95497.50
2022-11-29T06:20:08.567Z,95493.09
2022-11-29T06:25:21.369Z,95501.06
2022-11-29T06:30:55.238Z,95503.94
2022-11-29T06:36:19.910Z,95511.09
2022-11-29T06:41:24.339Z,95510.13
2022-11-29T06:46:56.000Z,95513.00
2022-11-29T06:52:09.977Z,95513.09
2022-11-29T06:58:10.080Z,95516.44
2022-11-29T07:03:47.838Z,95525.88
2022-11-29T07:08:53.840Z,95533.72
2022-11-29T07:13:55.825Z,95531.81
2022-11-29T07:19:10.166Z,95539.56
2022-11-29T07:24:20.315Z,95550.41
2022-11-29T07:29:29.544Z,95548.00
2022-11-29T07:34:47.511Z,95553.50
2022-11-29T07:40:15.978Z,95544.69
2022-11-29T07:45:30.730Z,95553.25
2022-11-29T07:50:32.600Z,95548.53
2022-11-29T07:55:34.211Z,95551.00
2022-11-29T08:00:35.727Z,95553.28
2022-11-29T08:05:38.252Z,95559.75
2022-11-29T08:10:39.680Z,95570.50
2022-11-29T08:15:45.720Z,95568.09
2022-11-29T08:20:47.129Z,95574.91
2022-11-29T08:25:48.588Z,95579.66
2022-11-29T08:30:50.042Z,95577.88
2022-11-29T08:35:51.444Z,95584.78
2022-11-29T08:40:52.907Z,95580.41
2022-11-29T08:45:54.367Z,95580.75
2022-11-29T08:50:56.621Z,95583.25
2022-11-29T08:55:59.575Z,95584.69
2022-11-29T09:01:01.074Z,95588.84
2022-11-29T09:06:14.031Z,95588.38
2022-11-29T09:11:18.501Z,95583.75
2022-11-29T09:16:22.475Z,95585.66
2022-11-29T09:21:25.944Z,95589.94
2022-11-29T09:26:30.263Z,95598.88
2022-11-29T09:31:33.155Z,95595.19
2022-11-29T09:36:34.637Z,95608.88
2022-11-29T09:42:07.535Z,95598.88
2022-11-29T09:47:18.552Z,95602.22
2022-11-29T09:52:32.113Z,95605.91
2022-11-29T09:57:33.675Z,95609.47
2022-11-29T10:02:43.659Z,95608.41
2022-11-29T10:08:03.380Z,95611.50
2022-11-29T10:13:18.824Z,95611.59
2022-11-29T10:18:35.020Z,95602.53
2022-11-29T10:23:41.754Z,95601.44
2022-11-29T10:28:45.021Z,95600.72
2022-11-29T10:33:47.374Z,95599.41
2022-11-29T10:38:50.284Z,95599.53
2022-11-29T10:43:52.021Z,95597.03
2022-11-29T10:48:54.026Z,95599.66
2022-11-29T10:53:56.555Z,95599.53
2022-11-29T10:59:03.902Z,95596.78
2022-11-29T11:04:06.850Z,95593.78
2022-11-29T11:09:24.936Z,95600.44
2022-11-29T11:14:28.252Z,95594.38
2022-11-29T11:19:34.540Z,95594.00
2022-11-29T11:24:41.828Z,95592.34
2022-11-29T11:29:44.739Z,95586.69
2022-11-29T11:35:00.087Z,95599.22
2022-11-29T11:40:26.748Z,95597.88
2022-11-29T11:45:33.892Z,95604.34
2022-11-29T11:50:51.536Z,95598.50
2022-11-29T11:56:01.486Z,95606.19
2022-11-29T12:01:11.780Z,95597.06
2022-11-29T12:06:19.607Z,95605.22
2022-11-29T12:11:24.436Z,95605.59
2022-11-29T12:16:33.067Z,95617.75
2022-11-29T12:21:42.355Z,95616.00
2022-11-29T12:26:59.666Z,95613.34
2022-11-29T12:32:13.015Z,95616.31
2022-11-29T12:37:26.884Z,95619.69
2022-11-29T12:42:50.254Z,95619.69
2022-11-29T12:48:03.003Z,95616.22
2022-11-29T12:53:33.412Z,95621.47
2022-11-29T12:59:01.110Z,95623.50
2022-11-29T13:04:21.387Z,95618.28
2022-11-29T13:09:28.687Z,95621.97
2022-11-29T13:14:43.917Z,95627.34
2022-11-29T13:19:55.339Z,95633.69
2022-11-29T13:25:06.101Z,95643.34
2022-11-29T13:30:13.281Z,95629.63
2022-11-29T13:35:14.656Z,95633.09
2022-11-29T13:40:23.385Z,95630.72
2022-11-29T13:45:33.806Z,95633.00
2022-11-29T13:50:35.177Z,95632.25
2022-11-29T13:55:44.353Z,95640.88
2022-11-29T14:00:45.745Z,95637.28
2022-11-29T14:05:52.554Z,95636.78
2022-11-29T14:11:14.045Z,95648.00
2022-11-29T14:16:32.305Z,95642.41
2022-11-29T14:22:01.419Z,95650.41
2022-11-29T14:27:05.673Z,95652.91
2022-11-29T14:32:22.154Z,95650.19
2022-11-29T14:37:40.027Z,95656.13
2022-11-29T14:42:47.154Z,95661.28
2022-11-29T14:47:49.332Z,95650.53
2022-11-29T14:52:51.698Z,95660.66
2022-11-29T14:58:02.022Z,95659.00
2022-11-29T15:03:21.032Z,95658.66
2022-11-29T15:08:48.726Z,95659.25
2022-11-29T15:14:47.259Z,95664.97
2022-11-29T15:20:07.336Z,95673.53
2022-11-29T15:25:13.300Z,95674.28
2022-11-29T15:30:27.411Z,95679.50
2022-11-29T15:35:29.183Z,95676.16
2022-11-29T15:40:31.396Z,95683.06
2022-11-29T15:45:36.226Z,95676.50
2022-11-29T15:50:43.623Z,95688.91
2022-11-29T15:55:48.003Z,95684.38
2022-11-29T16:00:50.484Z,95693.78
2022-11-29T16:06:05.395Z,95695.44
2022-11-29T16:11:09.240Z,95698.94
2022-11-29T16:16:19.288Z,95696.19
2022-11-29T16:21:26.801Z,95702.03
2022-11-29T16:44:06.820Z,95716.44
2022-11-29T17:05:19.733Z,95716.25
2022-11-29T17:36:10.488Z,95728.75
2022-11-29T17:41:14.513Z,95736.63
2022-11-29T17:46:19.076Z,95740.88
2022-11-29T17:51:50.521Z,95740.03
2022-11-29T17:56:45.431Z,95749.78
2022-11-29T18:01:47.147Z,95748.50
2022-11-29T18:06:48.980Z,95751.03
2022-11-29T18:11:50.701Z,95750.16
2022-11-29T18:16:52.365Z,95755.31
2022-11-29T18:21:53.963Z,95758.16
2022-11-29T18:26:55.382Z,95755.53
2022-11-29T18:31:56.766Z,95759.94
2022-11-29T18:36:58.145Z,95764.03
2022-11-29T18:41:59.610Z,95759.84
2022-11-29T18:47:01.004Z,95762.34
2022-11-29T18:52:02.495Z,95771.06
2022-11-29T18:57:03.867Z,95768.75
2022-11-29T19:02:05.575Z,95771.28
2022-11-29T19:07:07.102Z,95771.63
2022-11-29T19:12:08.572Z,95779.38
2022-11-29T19:17:10.044Z,95771.94
2022-11-29T19:22:11.558Z,95775.53
2022-11-29T19:27:12.995Z,95773.84
2022-11-29T19:32:14.430Z,95781.00
2022-11-29T19:37:18.132Z,95778.06
2022-11-29T19:42:19.572Z,95782.44
2022-11-29T19:47:20.955Z,95782.22
2022-11-29T19:52:22.527Z,95781.25
2022-11-29T19:57:24.050Z,95783.88
2022-11-29T20:02:25.656Z,95776.63
2022-11-29T20:07:27.174Z,95775.44
2022-11-29T20:12:30.046Z,95785.06
2022-11-29T20:17:31.537Z,95785.78
2022-11-29T20:22:33.031Z,95781.97
2022-11-29T20:27:34.525Z,95795.06
2022-11-29T20:32:36.092Z,95789.69
2022-11-29T20:37:56.251Z,95795.16
2022-11-29T20:43:15.363Z,95799.47
2022-11-29T20:48:20.867Z,95802.41
2022-11-29T20:53:31.858Z,95803.06
2022-11-29T20:58:33.905Z,95798.53
2022-11-29T21:03:35.485Z,95801.75
2022-11-29T21:08:36.959Z,95812.22
2022-11-29T21:13:38.953Z,95804.50
2022-11-29T21:18:40.719Z,95806.16
2022-11-29T21:23:57.032Z,95806.16
2022-11-29T21:29:14.159Z,95797.56
2022-11-29T21:34:15.631Z,95803.56
2022-11-29T21:39:17.111Z,95808.94
2022-11-29T21:44:18.564Z,95809.66
2022-11-29T21:49:20.143Z,95808.00
2022-11-29T21:54:21.639Z,95809.75
2022-11-29T21:59:23.092Z,95815.63
2022-11-29T22:04:24.978Z,95814.69
2022-11-29T22:09:26.383Z,95802.28
2022-11-29T22:14:27.809Z,95803.25
2022-11-29T22:19:31.607Z,95802.63
2022-11-29T22:24:35.220Z,95803.78
2022-11-29T22:29:36.704Z,95806.88
2022-11-29T22:34:38.155Z,95802.91
2022-11-29T22:39:39.592Z,95799.31
2022-11-29T22:44:41.903Z,95800.38
2022-11-29T22:49:43.363Z,95798.81
2022-11-29T22:54:45.081Z,95799.56
2022-11-29T22:59:46.856Z,95795.13
2022-11-29T23:04:48.989Z,95807.75
2022-11-29T23:09:50.582Z,95794.34
2022-11-29T23:14:56.368Z,95798.63
2022-11-29T23:19:58.370Z,95807.25
2022-11-29T23:24:59.823Z,95796.78
2022-11-29T23:30:01.246Z,95796.00
2022-11-29T23:35:02.746Z,95801.59
2022-11-29T23:40:05.016Z,95805.25
2022-11-29T23:45:06.597Z,95802.53
2022-11-29T23:50:08.946Z,95801.91
2022-11-29T23:55:12.200Z,95790.91
